SWA4304 KBNA-KPNS
Flight info
| Callsign | SWA4304 |
|---|---|
| Flight time | 0h 57m |
| Altitude | 38000 |
| Route | FLAME4 FLAME VUZ PENSI |
| Aircraft | B738/M-SDE2E3FGHIRWXY/LB1 |
Departure
| Time | 2026-04-26 16:02 |
|---|---|
| Airport | Nashville International Airport (KBNA) |
Arrival
| Time | 2026-04-26 16:59 |
|---|---|
| Airport | Pensacola International Airport (KPNS) |
| Time | Latitude | Longitude | Altitude | Speed | Heading |
|---|---|---|---|---|---|
| 2026-04-26 15:23 | 36.12871 | -86.66936 | 577 ft | 0 kts | 218° |
| 2026-04-26 15:45 | 36.12873 | -86.66934 | 576 ft | 0 kts | 218° |
| 2026-04-26 15:46 | 36.12874 | -86.66933 | 574 ft | 1 kts | 218° |
| 2026-04-26 15:46 | 36.12879 | -86.66929 | 578 ft | 1 kts | 218° |
| 2026-04-26 15:46 | 36.12882 | -86.66925 | 579 ft | 1 kts | 218° |
| 2026-04-26 15:47 | 36.12889 | -86.66919 | 575 ft | 1 kts | 218° |
| 2026-04-26 15:47 | 36.12900 | -86.66910 | 572 ft | 1 kts | 207° |
| 2026-04-26 15:47 | 36.12905 | -86.66906 | 575 ft | 1 kts | 198° |
| 2026-04-26 15:48 | 36.12912 | -86.66904 | 572 ft | 1 kts | 188° |
| 2026-04-26 15:48 | 36.12916 | -86.66903 | 575 ft | 0 kts | 149° |
| 2026-04-26 15:54 | 36.12916 | -86.66902 | 572 ft | 1 kts | 149° |
| 2026-04-26 15:54 | 36.12892 | -86.66877 | 571 ft | 11 kts | 136° |
| 2026-04-26 15:54 | 36.12826 | -86.66787 | 572 ft | 16 kts | 139° |
| 2026-04-26 15:54 | 36.12724 | -86.66793 | 572 ft | 16 kts | 211° |
| 2026-04-26 15:55 | 36.12631 | -86.66854 | 577 ft | 15 kts | 207° |
| 2026-04-26 15:55 | 36.12540 | -86.66914 | 580 ft | 14 kts | 208° |
| 2026-04-26 15:55 | 36.12449 | -86.66942 | 582 ft | 14 kts | 158° |
| 2026-04-26 15:55 | 36.12380 | -86.66865 | 582 ft | 13 kts | 127° |
| 2026-04-26 15:56 | 36.12338 | -86.66761 | 581 ft | 15 kts | 110° |
| 2026-04-26 15:56 | 36.12302 | -86.66629 | 581 ft | 8 kts | 108° |
| 2026-04-26 15:56 | 36.12293 | -86.66594 | 574 ft | 7 kts | 107° |
| 2026-04-26 15:56 | 36.12251 | -86.66525 | 572 ft | 11 kts | 172° |
| 2026-04-26 15:57 | 36.12179 | -86.66546 | 576 ft | 11 kts | 198° |
| 2026-04-26 15:57 | 36.12110 | -86.66574 | 579 ft | 10 kts | 197° |
| 2026-04-26 15:57 | 36.12042 | -86.66599 | 583 ft | 10 kts | 197° |
| 2026-04-26 15:57 | 36.11995 | -86.66617 | 585 ft | 12 kts | 197° |
| 2026-04-26 15:58 | 36.11843 | -86.66678 | 588 ft | 22 kts | 198° |
| 2026-04-26 15:58 | 36.11686 | -86.66741 | 593 ft | 24 kts | 198° |
| 2026-04-26 15:58 | 36.11537 | -86.66800 | 596 ft | 18 kts | 198° |
| 2026-04-26 15:58 | 36.11458 | -86.66832 | 599 ft | 11 kts | 197° |
| 2026-04-26 15:59 | 36.11407 | -86.66851 | 600 ft | 11 kts | 197° |
| 2026-04-26 15:59 | 36.11335 | -86.66869 | 599 ft | 8 kts | 169° |
| 2026-04-26 15:59 | 36.11330 | -86.66867 | 599 ft | 0 kts | 162° |
| 2026-04-26 16:00 | 36.11327 | -86.66865 | 599 ft | 1 kts | 160° |
| 2026-04-26 16:01 | 36.11307 | -86.66842 | 599 ft | 7 kts | 122° |
| 2026-04-26 16:01 | 36.11296 | -86.66767 | 598 ft | 10 kts | 69° |
| 2026-04-26 16:01 | 36.11331 | -86.66740 | 599 ft | 0 kts | 18° |
| 2026-04-26 16:01 | 36.11385 | -86.66718 | 598 ft | 40 kts | 18° |
| 2026-04-26 16:02 | 36.11960 | -86.66491 | 583 ft | 129 kts | 18° |
| 2026-04-26 16:02 | 36.13058 | -86.66066 | 703 ft | 189 kts | 18° |
| 2026-04-26 16:02 | 36.14381 | -86.65602 | 1834 ft | 190 kts | 12° |
| 2026-04-26 16:02 | 36.15239 | -86.65362 | 2622 ft | 192 kts | 21° |
| 2026-04-26 16:03 | 36.16601 | -86.63680 | 3187 ft | 225 kts | 59° |
| 2026-04-26 16:03 | 36.17630 | -86.61935 | 3726 ft | 240 kts | 50° |
| 2026-04-26 16:03 | 36.18736 | -86.60371 | 4527 ft | 242 kts | 49° |
| 2026-04-26 16:03 | 36.19878 | -86.58815 | 5258 ft | 249 kts | 46° |
| 2026-04-26 16:04 | 36.21124 | -86.57206 | 5799 ft | 265 kts | 48° |
| 2026-04-26 16:04 | 36.22037 | -86.55179 | 6603 ft | 270 kts | 75° |
| 2026-04-26 16:04 | 36.22139 | -86.52891 | 6940 ft | 273 kts | 98° |
| 2026-04-26 16:04 | 36.21654 | -86.50579 | 7015 ft | 273 kts | 106° |
| 2026-04-26 16:05 | 36.21082 | -86.48345 | 7027 ft | 276 kts | 106° |
| 2026-04-26 16:05 | 36.20449 | -86.46082 | 6993 ft | 280 kts | 115° |
| 2026-04-26 16:05 | 36.19214 | -86.44238 | 7027 ft | 280 kts | 143° |
| 2026-04-26 16:05 | 36.17421 | -86.43261 | 7253 ft | 288 kts | 168° |
| 2026-04-26 16:06 | 36.15410 | -86.43114 | 8128 ft | 291 kts | 179° |
| 2026-04-26 16:06 | 36.13375 | -86.43199 | 9070 ft | 293 kts | 181° |
| 2026-04-26 16:06 | 36.11327 | -86.43328 | 9906 ft | 297 kts | 181° |
| 2026-04-26 16:06 | 36.09206 | -86.43462 | 10545 ft | 312 kts | 181° |
| 2026-04-26 16:07 | 36.06935 | -86.43589 | 10738 ft | 338 kts | 180° |
| 2026-04-26 16:07 | 36.04494 | -86.43714 | 10927 ft | 363 kts | 180° |
| 2026-04-26 16:07 | 36.01904 | -86.43842 | 11326 ft | 378 kts | 180° |
| 2026-04-26 16:07 | 35.99242 | -86.43970 | 12012 ft | 384 kts | 180° |
| 2026-04-26 16:08 | 35.96570 | -86.44097 | 12763 ft | 387 kts | 180° |
| 2026-04-26 16:08 | 35.94774 | -86.44180 | 13233 ft | 390 kts | 180° |
| 2026-04-26 16:08 | 35.91109 | -86.44676 | 14063 ft | 399 kts | 198° |
| 2026-04-26 16:08 | 35.88639 | -86.46242 | 14793 ft | 401 kts | 216° |
| 2026-04-26 16:09 | 35.86393 | -86.48299 | 15498 ft | 404 kts | 218° |
| 2026-04-26 16:09 | 35.84156 | -86.50412 | 16174 ft | 406 kts | 219° |
| 2026-04-26 16:09 | 35.82624 | -86.51863 | 16634 ft | 408 kts | 219° |
| 2026-04-26 16:09 | 35.80372 | -86.53983 | 17291 ft | 410 kts | 219° |
| 2026-04-26 16:10 | 35.78095 | -86.56108 | 17909 ft | 413 kts | 219° |
| 2026-04-26 16:10 | 35.75783 | -86.58248 | 18533 ft | 415 kts | 219° |
| 2026-04-26 16:10 | 35.73425 | -86.60420 | 19155 ft | 418 kts | 219° |
| 2026-04-26 16:10 | 35.71090 | -86.62564 | 19735 ft | 421 kts | 219° |
| 2026-04-26 16:11 | 35.68735 | -86.64724 | 20311 ft | 423 kts | 219° |
| 2026-04-26 16:11 | 35.66365 | -86.66896 | 20859 ft | 426 kts | 220° |
| 2026-04-26 16:11 | 35.63976 | -86.69084 | 21369 ft | 429 kts | 220° |
| 2026-04-26 16:11 | 35.61578 | -86.71280 | 21846 ft | 432 kts | 220° |
| 2026-04-26 16:12 | 35.59154 | -86.73497 | 22335 ft | 434 kts | 220° |
| 2026-04-26 16:12 | 35.56718 | -86.75709 | 22789 ft | 438 kts | 218° |
| 2026-04-26 16:12 | 35.50831 | -86.78003 | 23641 ft | 459 kts | 187° |
| 2026-04-26 16:13 | 35.47635 | -86.78209 | 24052 ft | 462 kts | 186° |
| 2026-04-26 16:13 | 35.44402 | -86.78380 | 24384 ft | 467 kts | 186° |
| 2026-04-26 16:13 | 35.41143 | -86.78549 | 24750 ft | 470 kts | 186° |
| 2026-04-26 16:13 | 35.37871 | -86.78729 | 25137 ft | 472 kts | 186° |
| 2026-04-26 16:14 | 35.34577 | -86.78925 | 25493 ft | 475 kts | 187° |
| 2026-04-26 16:14 | 35.31262 | -86.79135 | 25841 ft | 477 kts | 187° |
| 2026-04-26 16:14 | 35.24593 | -86.79579 | 26516 ft | 482 kts | 187° |
| 2026-04-26 16:15 | 35.21236 | -86.79806 | 26838 ft | 485 kts | 187° |
| 2026-04-26 16:15 | 35.17849 | -86.80037 | 27159 ft | 487 kts | 187° |
| 2026-04-26 16:15 | 35.14463 | -86.80266 | 27430 ft | 489 kts | 187° |
| 2026-04-26 16:16 | 35.07588 | -86.80729 | 28052 ft | 493 kts | 188° |
| 2026-04-26 16:16 | 35.04196 | -86.80956 | 28334 ft | 495 kts | 188° |
| 2026-04-26 16:16 | 35.00713 | -86.81188 | 28708 ft | 495 kts | 188° |
| 2026-04-26 16:16 | 34.97318 | -86.81414 | 29171 ft | 492 kts | 188° |
| 2026-04-26 16:17 | 34.93866 | -86.81644 | 29637 ft | 489 kts | 188° |
| 2026-04-26 16:17 | 34.90454 | -86.81871 | 30029 ft | 489 kts | 188° |
| 2026-04-26 16:17 | 34.87054 | -86.82098 | 30347 ft | 489 kts | 188° |
| 2026-04-26 16:17 | 34.83654 | -86.82325 | 30759 ft | 488 kts | 189° |
| 2026-04-26 16:18 | 34.80231 | -86.82552 | 31176 ft | 486 kts | 189° |
| 2026-04-26 16:18 | 34.73491 | -86.83000 | 31954 ft | 483 kts | 189° |
| 2026-04-26 16:19 | 34.66826 | -86.83443 | 32655 ft | 481 kts | 190° |
| 2026-04-26 16:19 | 34.63467 | -86.83667 | 32999 ft | 480 kts | 190° |
| 2026-04-26 16:19 | 34.57934 | -86.84034 | 33595 ft | 478 kts | 191° |
| 2026-04-26 16:20 | 34.53481 | -86.84327 | 34108 ft | 474 kts | 191° |
| 2026-04-26 16:20 | 34.46882 | -86.84766 | 34610 ft | 476 kts | 191° |
| 2026-04-26 16:20 | 34.43578 | -86.84987 | 34813 ft | 477 kts | 191° |
| 2026-04-26 16:21 | 34.40258 | -86.85207 | 35110 ft | 476 kts | 191° |
| 2026-04-26 16:21 | 34.36951 | -86.85424 | 35438 ft | 475 kts | 191° |
| 2026-04-26 16:21 | 34.33651 | -86.85640 | 35751 ft | 473 kts | 191° |
| 2026-04-26 16:21 | 34.30357 | -86.85857 | 35950 ft | 475 kts | 192° |
| 2026-04-26 16:22 | 34.27016 | -86.86078 | 36147 ft | 476 kts | 192° |
| 2026-04-26 16:22 | 34.23703 | -86.86297 | 36391 ft | 475 kts | 192° |
| 2026-04-26 16:22 | 34.20403 | -86.86514 | 36618 ft | 476 kts | 192° |
| 2026-04-26 16:22 | 34.17084 | -86.86733 | 36782 ft | 477 kts | 192° |
| 2026-04-26 16:23 | 34.13811 | -86.86946 | 37105 ft | 474 kts | 192° |
| 2026-04-26 16:23 | 34.10490 | -86.87161 | 37469 ft | 470 kts | 192° |
| 2026-04-26 16:23 | 34.07231 | -86.87372 | 37754 ft | 468 kts | 192° |
| 2026-04-26 16:23 | 34.03950 | -86.87588 | 37934 ft | 469 kts | 192° |
| 2026-04-26 16:24 | 33.97374 | -86.88024 | 38021 ft | 474 kts | 192° |
| 2026-04-26 16:24 | 33.90802 | -86.88452 | 38028 ft | 471 kts | 192° |
| 2026-04-26 16:25 | 33.84268 | -86.88875 | 38027 ft | 469 kts | 192° |
| 2026-04-26 16:25 | 33.77859 | -86.89292 | 38022 ft | 467 kts | 192° |
| 2026-04-26 16:26 | 33.72561 | -86.89638 | 38032 ft | 465 kts | 192° |
| 2026-04-26 16:26 | 33.66033 | -86.90084 | 38032 ft | 463 kts | 194° |
| 2026-04-26 16:27 | 33.59629 | -86.90868 | 38037 ft | 460 kts | 196° |
| 2026-04-26 16:27 | 33.53261 | -86.91787 | 38044 ft | 461 kts | 196° |
| 2026-04-26 16:28 | 33.46470 | -86.92743 | 38035 ft | 463 kts | 196° |
| 2026-04-26 16:28 | 33.39969 | -86.93624 | 38035 ft | 466 kts | 195° |
| 2026-04-26 16:29 | 33.33421 | -86.94497 | 38025 ft | 467 kts | 195° |
| 2026-04-26 16:29 | 33.26952 | -86.95354 | 38031 ft | 469 kts | 195° |
| 2026-04-26 16:30 | 33.20158 | -86.96255 | 38032 ft | 469 kts | 195° |
| 2026-04-26 16:30 | 33.13855 | -86.97091 | 38027 ft | 469 kts | 195° |
| 2026-04-26 16:31 | 33.07363 | -86.97951 | 38024 ft | 469 kts | 195° |
| 2026-04-26 16:31 | 33.00832 | -86.98814 | 38018 ft | 469 kts | 195° |
| 2026-04-26 16:32 | 32.95393 | -86.99532 | 38013 ft | 468 kts | 195° |
| 2026-04-26 16:32 | 32.87838 | -87.00529 | 38009 ft | 468 kts | 195° |
| 2026-04-26 16:33 | 32.81363 | -87.01383 | 38012 ft | 467 kts | 195° |
| 2026-04-26 16:33 | 32.74883 | -87.02236 | 38010 ft | 467 kts | 195° |
| 2026-04-26 16:34 | 32.68429 | -87.03082 | 38009 ft | 466 kts | 195° |
| 2026-04-26 16:34 | 32.61972 | -87.03930 | 38011 ft | 467 kts | 195° |
| 2026-04-26 16:35 | 32.56464 | -87.04653 | 38011 ft | 467 kts | 195° |
| 2026-04-26 16:35 | 32.49971 | -87.05503 | 38007 ft | 468 kts | 195° |
| 2026-04-26 16:36 | 32.43437 | -87.06355 | 38012 ft | 467 kts | 195° |
| 2026-04-26 16:36 | 32.36974 | -87.07198 | 38009 ft | 468 kts | 195° |
| 2026-04-26 16:37 | 32.30507 | -87.08040 | 38011 ft | 468 kts | 195° |
| 2026-04-26 16:37 | 32.24019 | -87.08884 | 38009 ft | 468 kts | 195° |
| 2026-04-26 16:38 | 32.17518 | -87.09729 | 37709 ft | 474 kts | 195° |
| 2026-04-26 16:38 | 32.14242 | -87.10158 | 37182 ft | 474 kts | 194° |
| 2026-04-26 16:38 | 32.10963 | -87.10581 | 36614 ft | 472 kts | 194° |
| 2026-04-26 16:39 | 32.07713 | -87.11000 | 36032 ft | 471 kts | 194° |
| 2026-04-26 16:39 | 32.04451 | -87.11420 | 35387 ft | 471 kts | 194° |
| 2026-04-26 16:39 | 32.01185 | -87.11842 | 34719 ft | 472 kts | 194° |
| 2026-04-26 16:39 | 31.97928 | -87.12264 | 34033 ft | 473 kts | 193° |
| 2026-04-26 16:40 | 31.94627 | -87.12422 | 33726 ft | 473 kts | 184° |
| 2026-04-26 16:40 | 31.91330 | -87.11974 | 33491 ft | 482 kts | 175° |
| 2026-04-26 16:40 | 31.88013 | -87.10991 | 33264 ft | 500 kts | 166° |
| 2026-04-26 16:40 | 31.84704 | -87.09627 | 33038 ft | 508 kts | 165° |
| 2026-04-26 16:41 | 31.81320 | -87.08190 | 32786 ft | 510 kts | 165° |
| 2026-04-26 16:41 | 31.77988 | -87.06768 | 32527 ft | 508 kts | 165° |
| 2026-04-26 16:41 | 31.74660 | -87.05361 | 32277 ft | 507 kts | 165° |
| 2026-04-26 16:41 | 31.71352 | -87.03978 | 32021 ft | 505 kts | 165° |
| 2026-04-26 16:42 | 31.68001 | -87.02592 | 31771 ft | 503 kts | 165° |
| 2026-04-26 16:42 | 31.64693 | -87.01234 | 31519 ft | 501 kts | 165° |
| 2026-04-26 16:42 | 31.61372 | -86.99876 | 31268 ft | 499 kts | 165° |
| 2026-04-26 16:42 | 31.58130 | -86.98552 | 31023 ft | 498 kts | 165° |
| 2026-04-26 16:43 | 31.54856 | -86.97215 | 30772 ft | 498 kts | 165° |
| 2026-04-26 16:43 | 31.51533 | -86.95859 | 30519 ft | 497 kts | 165° |
| 2026-04-26 16:43 | 31.48279 | -86.94531 | 30276 ft | 497 kts | 165° |
| 2026-04-26 16:43 | 31.45002 | -86.93194 | 30036 ft | 497 kts | 165° |
| 2026-04-26 16:44 | 31.41726 | -86.91858 | 29781 ft | 498 kts | 165° |
| 2026-04-26 16:44 | 31.38421 | -86.90511 | 29536 ft | 498 kts | 165° |
| 2026-04-26 16:44 | 31.35161 | -86.89183 | 29136 ft | 497 kts | 165° |
| 2026-04-26 16:44 | 31.31884 | -86.87850 | 28180 ft | 500 kts | 165° |
| 2026-04-26 16:45 | 31.28564 | -86.86500 | 27260 ft | 500 kts | 164° |
| 2026-04-26 16:45 | 31.25261 | -86.85158 | 26287 ft | 501 kts | 164° |
| 2026-04-26 16:45 | 31.21971 | -86.83822 | 25296 ft | 501 kts | 163° |
| 2026-04-26 16:45 | 31.18693 | -86.82491 | 24446 ft | 498 kts | 163° |
| 2026-04-26 16:46 | 31.15423 | -86.81164 | 23735 ft | 491 kts | 163° |
| 2026-04-26 16:46 | 31.12221 | -86.79865 | 23140 ft | 482 kts | 163° |
| 2026-04-26 16:46 | 31.09083 | -86.78593 | 22478 ft | 473 kts | 163° |
| 2026-04-26 16:46 | 31.05991 | -86.77341 | 21648 ft | 465 kts | 163° |
| 2026-04-26 16:47 | 31.02910 | -86.76096 | 20661 ft | 461 kts | 163° |
| 2026-04-26 16:47 | 30.99890 | -86.74876 | 19749 ft | 456 kts | 163° |
| 2026-04-26 16:47 | 30.96918 | -86.73677 | 18913 ft | 448 kts | 163° |
| 2026-04-26 16:47 | 30.94015 | -86.72598 | 18066 ft | 439 kts | 171° |
| 2026-04-26 16:48 | 30.90872 | -86.72491 | 17129 ft | 425 kts | 192° |
| 2026-04-26 16:48 | 30.88093 | -86.73490 | 16260 ft | 414 kts | 208° |
| 2026-04-26 16:48 | 30.86437 | -86.74608 | 15638 ft | 408 kts | 218° |
| 2026-04-26 16:48 | 30.84366 | -86.76814 | 14672 ft | 402 kts | 232° |
| 2026-04-26 16:49 | 30.82823 | -86.79624 | 14189 ft | 386 kts | 246° |
| 2026-04-26 16:49 | 30.81934 | -86.82371 | 14049 ft | 363 kts | 258° |
| 2026-04-26 16:49 | 30.81609 | -86.85181 | 13943 ft | 343 kts | 267° |
| 2026-04-26 16:49 | 30.81464 | -86.87961 | 13794 ft | 323 kts | 268° |
| 2026-04-26 16:50 | 30.81353 | -86.90423 | 13687 ft | 305 kts | 269° |
| 2026-04-26 16:50 | 30.81241 | -86.92835 | 13426 ft | 294 kts | 268° |
| 2026-04-26 16:50 | 30.81125 | -86.95192 | 13003 ft | 289 kts | 268° |
| 2026-04-26 16:50 | 30.81005 | -86.97505 | 12595 ft | 284 kts | 268° |
| 2026-04-26 16:51 | 30.80883 | -86.99787 | 12180 ft | 280 kts | 268° |
| 2026-04-26 16:51 | 30.80758 | -87.02068 | 11690 ft | 279 kts | 268° |
| 2026-04-26 16:51 | 30.80635 | -87.04309 | 11221 ft | 278 kts | 268° |
| 2026-04-26 16:51 | 30.80333 | -87.06530 | 10727 ft | 280 kts | 251° |
| 2026-04-26 16:52 | 30.79229 | -87.08429 | 10227 ft | 285 kts | 224° |
| 2026-04-26 16:52 | 30.78130 | -87.09276 | 9907 ft | 288 kts | 206° |
| 2026-04-26 16:52 | 30.75484 | -87.09670 | 9277 ft | 293 kts | 170° |
| 2026-04-26 16:52 | 30.73541 | -87.08959 | 8822 ft | 292 kts | 159° |
| 2026-04-26 16:53 | 30.71694 | -87.08053 | 8375 ft | 291 kts | 157° |
| 2026-04-26 16:53 | 30.69837 | -87.07095 | 8170 ft | 281 kts | 156° |
| 2026-04-26 16:53 | 30.68099 | -87.06189 | 7814 ft | 273 kts | 156° |
| 2026-04-26 16:53 | 30.66341 | -87.05270 | 7048 ft | 280 kts | 156° |
| 2026-04-26 16:54 | 30.64565 | -87.04341 | 6387 ft | 281 kts | 156° |
| 2026-04-26 16:54 | 30.62804 | -87.03422 | 5831 ft | 278 kts | 156° |
| 2026-04-26 16:54 | 30.61028 | -87.02496 | 5248 ft | 275 kts | 156° |
| 2026-04-26 16:54 | 30.59285 | -87.01589 | 4677 ft | 272 kts | 156° |
| 2026-04-26 16:55 | 30.57564 | -87.00695 | 4132 ft | 269 kts | 156° |
| 2026-04-26 16:55 | 30.55862 | -86.99811 | 3567 ft | 266 kts | 156° |
| 2026-04-26 16:55 | 30.54145 | -86.99026 | 3004 ft | 262 kts | 168° |
| 2026-04-26 16:55 | 30.52338 | -86.99079 | 2436 ft | 257 kts | 199° |
| 2026-04-26 16:56 | 30.50025 | -87.01987 | 2164 ft | 251 kts | 253° |
| 2026-04-26 16:56 | 30.49529 | -87.03943 | 2059 ft | 251 kts | 256° |
| 2026-04-26 16:56 | 30.49214 | -87.05937 | 2028 ft | 248 kts | 264° |
| 2026-04-26 16:57 | 30.48985 | -87.07892 | 2005 ft | 236 kts | 262° |
| 2026-04-26 16:57 | 30.48740 | -87.09720 | 1875 ft | 213 kts | 262° |
| 2026-04-26 16:57 | 30.48274 | -87.13081 | 1060 ft | 189 kts | 261° |
| 2026-04-26 16:58 | 30.48109 | -87.14007 | 921 ft | 178 kts | 260° |
| 2026-04-26 16:58 | 30.47916 | -87.15033 | 780 ft | 159 kts | 260° |
| 2026-04-26 16:58 | 30.47482 | -87.17644 | 133 ft | 122 kts | 261° |
| 2026-04-26 16:59 | 30.47336 | -87.18468 | 105 ft | 80 kts | 258° |
| 2026-04-26 16:59 | 30.47243 | -87.18975 | 100 ft | 20 kts | 258° |
| 2026-04-26 17:00 | 30.47212 | -87.19295 | 94 ft | 15 kts | 305° |
| 2026-04-26 17:00 | 30.47277 | -87.19329 | 95 ft | 0 kts | 351° |
| 2026-04-26 17:01 | 30.47284 | -87.19330 | 98 ft | 6 kts | 350° |
| 2026-04-26 17:01 | 30.47366 | -87.19311 | 97 ft | 13 kts | 25° |
| 2026-04-26 17:02 | 30.47428 | -87.19258 | 101 ft | 10 kts | 31° |
| 2026-04-26 17:02 | 30.47465 | -87.19236 | 105 ft | 0 kts | 26° |
| 2026-04-26 17:02 | 30.47465 | -87.19235 | 105 ft | 0 kts | 26° |